UAL133 PTKK-PTPN
Flight info
| Callsign | UAL133 |
|---|---|
| Flight time | N/A |
| Altitude | 35000 |
| Route | MICNO R584 BIRUQ |
| Aircraft | B738/M-SDE2E3FGHIRWXY/LB1 |
Departure
| Time | N/A |
|---|---|
| Airport | Chuuk International Airport (PTKK) |
Arrival
| Time | 2026-04-23 20:51 |
|---|---|
| Airport | Pohnpei International Airport (PTPN) |
| Time | Latitude | Longitude | Altitude | Speed | Heading |
|---|---|---|---|---|---|
| 2026-04-23 19:54 | 7.43616 | 152.21558 | 13447 ft | 346 kts | 94° |
| 2026-04-23 19:55 | 7.43405 | 152.23987 | 14057 ft | 350 kts | 94° |
| 2026-04-23 19:55 | 7.43191 | 152.26450 | 14582 ft | 355 kts | 94° |
| 2026-04-23 19:55 | 7.42976 | 152.28925 | 15253 ft | 354 kts | 94° |
| 2026-04-23 19:55 | 7.42761 | 152.31401 | 15874 ft | 357 kts | 94° |
| 2026-04-23 19:56 | 7.42542 | 152.33916 | 16278 ft | 365 kts | 94° |
| 2026-04-23 19:56 | 7.42335 | 152.36481 | 16804 ft | 369 kts | 94° |
| 2026-04-23 19:56 | 7.42152 | 152.39061 | 17380 ft | 372 kts | 93° |
| 2026-04-23 19:56 | 7.41978 | 152.41630 | 17903 ft | 375 kts | 93° |
| 2026-04-23 19:57 | 7.41802 | 152.44257 | 18440 ft | 377 kts | 93° |
| 2026-04-23 19:57 | 7.41625 | 152.46883 | 19017 ft | 376 kts | 94° |
| 2026-04-23 19:57 | 7.41445 | 152.49526 | 19437 ft | 381 kts | 94° |
| 2026-04-23 19:57 | 7.41262 | 152.52210 | 19844 ft | 385 kts | 94° |
| 2026-04-23 19:58 | 7.41076 | 152.54909 | 20270 ft | 389 kts | 94° |
| 2026-04-23 19:58 | 7.40886 | 152.57644 | 20631 ft | 395 kts | 94° |
| 2026-04-23 19:58 | 7.40695 | 152.60402 | 21155 ft | 394 kts | 94° |
| 2026-04-23 19:58 | 7.40502 | 152.63165 | 21624 ft | 397 kts | 94° |
| 2026-04-23 19:59 | 7.40308 | 152.65960 | 21912 ft | 403 kts | 94° |
| 2026-04-23 19:59 | 7.40110 | 152.68783 | 22419 ft | 403 kts | 94° |
| 2026-04-23 19:59 | 7.39913 | 152.71605 | 22859 ft | 406 kts | 94° |
| 2026-04-23 19:59 | 7.39713 | 152.74464 | 23162 ft | 411 kts | 94° |
| 2026-04-23 20:00 | 7.39511 | 152.77352 | 23536 ft | 414 kts | 94° |
| 2026-04-23 20:00 | 7.39307 | 152.80254 | 23807 ft | 418 kts | 94° |
| 2026-04-23 20:00 | 7.39101 | 152.83191 | 24127 ft | 420 kts | 94° |
| 2026-04-23 20:00 | 7.38894 | 152.86140 | 24419 ft | 424 kts | 94° |
| 2026-04-23 20:01 | 7.38685 | 152.89119 | 24614 ft | 429 kts | 94° |
| 2026-04-23 20:01 | 7.38474 | 152.92119 | 25016 ft | 428 kts | 94° |
| 2026-04-23 20:01 | 7.38263 | 152.95114 | 25340 ft | 431 kts | 94° |
| 2026-04-23 20:01 | 7.38049 | 152.98142 | 25519 ft | 436 kts | 94° |
| 2026-04-23 20:02 | 7.37834 | 153.01189 | 25893 ft | 436 kts | 94° |
| 2026-04-23 20:02 | 7.37619 | 153.04241 | 26165 ft | 439 kts | 94° |
| 2026-04-23 20:02 | 7.37400 | 153.07328 | 26410 ft | 442 kts | 94° |
| 2026-04-23 20:02 | 7.37184 | 153.10378 | 26742 ft | 443 kts | 94° |
| 2026-04-23 20:03 | 7.36964 | 153.13486 | 26975 ft | 447 kts | 94° |
| 2026-04-23 20:03 | 7.36742 | 153.16618 | 27206 ft | 450 kts | 94° |
| 2026-04-23 20:03 | 7.36519 | 153.19766 | 27488 ft | 452 kts | 94° |
| 2026-04-23 20:03 | 7.36294 | 153.22931 | 27756 ft | 454 kts | 94° |
| 2026-04-23 20:04 | 7.36068 | 153.26108 | 28022 ft | 456 kts | 94° |
| 2026-04-23 20:04 | 7.35840 | 153.29304 | 28274 ft | 458 kts | 94° |
| 2026-04-23 20:04 | 7.35612 | 153.32513 | 28520 ft | 461 kts | 94° |
| 2026-04-23 20:04 | 7.35382 | 153.35738 | 28767 ft | 463 kts | 94° |
| 2026-04-23 20:05 | 7.35150 | 153.38976 | 29017 ft | 465 kts | 94° |
| 2026-04-23 20:05 | 7.34918 | 153.42229 | 29241 ft | 467 kts | 94° |
| 2026-04-23 20:05 | 7.34684 | 153.45503 | 29475 ft | 469 kts | 94° |
| 2026-04-23 20:05 | 7.34449 | 153.48784 | 29726 ft | 471 kts | 94° |
| 2026-04-23 20:06 | 7.34212 | 153.52084 | 29932 ft | 473 kts | 94° |
| 2026-04-23 20:06 | 7.33975 | 153.55381 | 30238 ft | 472 kts | 94° |
| 2026-04-23 20:06 | 7.33739 | 153.58668 | 30600 ft | 469 kts | 95° |
| 2026-04-23 20:06 | 7.33504 | 153.61937 | 30962 ft | 466 kts | 94° |
| 2026-04-23 20:07 | 7.33270 | 153.65190 | 31288 ft | 465 kts | 95° |
| 2026-04-23 20:07 | 7.33037 | 153.68436 | 31596 ft | 464 kts | 95° |
| 2026-04-23 20:07 | 7.32803 | 153.71673 | 31912 ft | 463 kts | 95° |
| 2026-04-23 20:07 | 7.32571 | 153.74900 | 32257 ft | 461 kts | 95° |
| 2026-04-23 20:08 | 7.32339 | 153.78109 | 32655 ft | 458 kts | 95° |
| 2026-04-23 20:08 | 7.32108 | 153.81305 | 32952 ft | 458 kts | 95° |
| 2026-04-23 20:08 | 7.31878 | 153.84502 | 33262 ft | 457 kts | 95° |
| 2026-04-23 20:08 | 7.31647 | 153.87690 | 33555 ft | 457 kts | 95° |
| 2026-04-23 20:09 | 7.31415 | 153.90874 | 33905 ft | 454 kts | 96° |
| 2026-04-23 20:09 | 7.31185 | 153.94041 | 34220 ft | 452 kts | 96° |
| 2026-04-23 20:09 | 7.30953 | 153.97201 | 34436 ft | 453 kts | 95° |
| 2026-04-23 20:09 | 7.30723 | 154.00359 | 34747 ft | 451 kts | 95° |
| 2026-04-23 20:10 | 7.30571 | 154.02444 | 34868 ft | 450 kts | 96° |
| 2026-04-23 20:10 | 7.30033 | 154.09820 | 34912 ft | 454 kts | 96° |
| 2026-04-23 20:11 | 7.29566 | 154.16186 | 34918 ft | 457 kts | 96° |
| 2026-04-23 20:11 | 7.29099 | 154.22574 | 34915 ft | 458 kts | 96° |
| 2026-04-23 20:12 | 7.28630 | 154.28977 | 34914 ft | 458 kts | 96° |
| 2026-04-23 20:12 | 7.28163 | 154.35337 | 34910 ft | 458 kts | 95° |
| 2026-04-23 20:13 | 7.27697 | 154.41697 | 34902 ft | 451 kts | 95° |
| 2026-04-23 20:13 | 7.27235 | 154.47954 | 34913 ft | 447 kts | 96° |
| 2026-04-23 20:14 | 7.26773 | 154.54183 | 34914 ft | 446 kts | 95° |
| 2026-04-23 20:14 | 7.26312 | 154.60404 | 34912 ft | 445 kts | 95° |
| 2026-04-23 20:15 | 7.25851 | 154.66626 | 34920 ft | 446 kts | 95° |
| 2026-04-23 20:15 | 7.25388 | 154.72853 | 34922 ft | 446 kts | 96° |
| 2026-04-23 20:16 | 7.24922 | 154.79092 | 34913 ft | 448 kts | 95° |
| 2026-04-23 20:16 | 7.24455 | 154.85349 | 34912 ft | 449 kts | 96° |
| 2026-04-23 20:17 | 7.23987 | 154.91625 | 34919 ft | 450 kts | 95° |
| 2026-04-23 20:17 | 7.23515 | 154.97922 | 34916 ft | 451 kts | 96° |
| 2026-04-23 20:18 | 7.23041 | 155.04232 | 34913 ft | 452 kts | 96° |
| 2026-04-23 20:18 | 7.22567 | 155.10546 | 34873 ft | 454 kts | 96° |
| 2026-04-23 20:18 | 7.22327 | 155.13726 | 34617 ft | 456 kts | 96° |
| 2026-04-23 20:19 | 7.22169 | 155.15831 | 34470 ft | 454 kts | 97° |
| 2026-04-23 20:19 | 7.21931 | 155.18992 | 34240 ft | 451 kts | 96° |
| 2026-04-23 20:19 | 7.21693 | 155.22135 | 34041 ft | 450 kts | 96° |
| 2026-04-23 20:19 | 7.21455 | 155.25279 | 33782 ft | 450 kts | 96° |
| 2026-04-23 20:20 | 7.21216 | 155.28424 | 33533 ft | 450 kts | 97° |
| 2026-04-23 20:20 | 7.20979 | 155.31565 | 33274 ft | 450 kts | 96° |
| 2026-04-23 20:20 | 7.20740 | 155.34707 | 33028 ft | 450 kts | 96° |
| 2026-04-23 20:20 | 7.20501 | 155.37855 | 32778 ft | 451 kts | 96° |
| 2026-04-23 20:21 | 7.20263 | 155.41006 | 32541 ft | 452 kts | 95° |
| 2026-04-23 20:21 | 7.20023 | 155.44167 | 32301 ft | 453 kts | 96° |
| 2026-04-23 20:21 | 7.19783 | 155.47336 | 32063 ft | 455 kts | 96° |
| 2026-04-23 20:21 | 7.19540 | 155.50516 | 31824 ft | 456 kts | 96° |
| 2026-04-23 20:22 | 7.19296 | 155.53708 | 31586 ft | 458 kts | 97° |
| 2026-04-23 20:22 | 7.19056 | 155.56867 | 31357 ft | 460 kts | 95° |
| 2026-04-23 20:22 | 7.18811 | 155.60078 | 31124 ft | 461 kts | 96° |
| 2026-04-23 20:22 | 7.18566 | 155.63298 | 30889 ft | 461 kts | 96° |
| 2026-04-23 20:23 | 7.18320 | 155.66520 | 30656 ft | 461 kts | 95° |
| 2026-04-23 20:23 | 7.18074 | 155.69733 | 30428 ft | 460 kts | 96° |
| 2026-04-23 20:23 | 7.17829 | 155.72943 | 30201 ft | 459 kts | 96° |
| 2026-04-23 20:23 | 7.17584 | 155.76147 | 29970 ft | 457 kts | 96° |
| 2026-04-23 20:24 | 7.17341 | 155.79325 | 29709 ft | 455 kts | 96° |
| 2026-04-23 20:24 | 7.17097 | 155.82494 | 29445 ft | 453 kts | 95° |
| 2026-04-23 20:24 | 7.16853 | 155.85650 | 29182 ft | 450 kts | 95° |
| 2026-04-23 20:24 | 7.16612 | 155.88783 | 28925 ft | 448 kts | 95° |
| 2026-04-23 20:25 | 7.16372 | 155.91900 | 28662 ft | 445 kts | 95° |
| 2026-04-23 20:25 | 7.16133 | 155.94996 | 28410 ft | 443 kts | 95° |
| 2026-04-23 20:25 | 7.15895 | 155.98080 | 28155 ft | 441 kts | 95° |
| 2026-04-23 20:25 | 7.15659 | 156.01146 | 27898 ft | 439 kts | 95° |
| 2026-04-23 20:26 | 7.15422 | 156.04201 | 27652 ft | 436 kts | 95° |
| 2026-04-23 20:26 | 7.15187 | 156.07238 | 27403 ft | 434 kts | 95° |
| 2026-04-23 20:26 | 7.14953 | 156.10261 | 27163 ft | 432 kts | 95° |
| 2026-04-23 20:26 | 7.14720 | 156.13274 | 26922 ft | 430 kts | 95° |
| 2026-04-23 20:27 | 7.14490 | 156.16232 | 26686 ft | 429 kts | 95° |
| 2026-04-23 20:27 | 7.14259 | 156.19217 | 26453 ft | 427 kts | 95° |
| 2026-04-23 20:27 | 7.14028 | 156.22194 | 26217 ft | 426 kts | 95° |
| 2026-04-23 20:27 | 7.13797 | 156.25159 | 25985 ft | 424 kts | 94° |
| 2026-04-23 20:28 | 7.13567 | 156.28115 | 25747 ft | 423 kts | 94° |
| 2026-04-23 20:28 | 7.13338 | 156.31059 | 25517 ft | 421 kts | 94° |
| 2026-04-23 20:28 | 7.13109 | 156.33993 | 25289 ft | 420 kts | 94° |
| 2026-04-23 20:28 | 7.12881 | 156.36915 | 25057 ft | 418 kts | 94° |
| 2026-04-23 20:29 | 7.12654 | 156.39827 | 24844 ft | 416 kts | 94° |
| 2026-04-23 20:29 | 7.12427 | 156.42729 | 24622 ft | 415 kts | 94° |
| 2026-04-23 20:29 | 7.12202 | 156.45615 | 24401 ft | 413 kts | 94° |
| 2026-04-23 20:29 | 7.11976 | 156.48495 | 24179 ft | 412 kts | 94° |
| 2026-04-23 20:30 | 7.11752 | 156.51359 | 23965 ft | 410 kts | 94° |
| 2026-04-23 20:30 | 7.11305 | 156.57067 | 23530 ft | 408 kts | 94° |
| 2026-04-23 20:30 | 7.11082 | 156.59904 | 23277 ft | 406 kts | 94° |
| 2026-04-23 20:31 | 7.10860 | 156.62731 | 23022 ft | 404 kts | 94° |
| 2026-04-23 20:31 | 7.10639 | 156.65549 | 22768 ft | 403 kts | 94° |
| 2026-04-23 20:31 | 7.10418 | 156.68352 | 22516 ft | 401 kts | 94° |
| 2026-04-23 20:31 | 7.10199 | 156.71138 | 22159 ft | 397 kts | 94° |
| 2026-04-23 20:32 | 7.09982 | 156.73892 | 21749 ft | 393 kts | 94° |
| 2026-04-23 20:32 | 7.09766 | 156.76626 | 21322 ft | 390 kts | 94° |
| 2026-04-23 20:32 | 7.09552 | 156.79333 | 20893 ft | 387 kts | 94° |
| 2026-04-23 20:32 | 7.09340 | 156.82024 | 20469 ft | 384 kts | 94° |
| 2026-04-23 20:33 | 7.09129 | 156.84696 | 20046 ft | 381 kts | 94° |
| 2026-04-23 20:33 | 7.08920 | 156.87347 | 19627 ft | 379 kts | 94° |
| 2026-04-23 20:33 | 7.08710 | 156.89991 | 19191 ft | 378 kts | 94° |
| 2026-04-23 20:33 | 7.08502 | 156.92620 | 18779 ft | 376 kts | 94° |
| 2026-04-23 20:34 | 7.08295 | 156.95236 | 18353 ft | 374 kts | 94° |
| 2026-04-23 20:34 | 7.08088 | 156.97843 | 17883 ft | 373 kts | 94° |
| 2026-04-23 20:34 | 7.07882 | 157.00435 | 17440 ft | 370 kts | 94° |
| 2026-04-23 20:34 | 7.07678 | 157.03004 | 17005 ft | 367 kts | 94° |
| 2026-04-23 20:35 | 7.07478 | 157.05520 | 16593 ft | 364 kts | 94° |
| 2026-04-23 20:35 | 7.07277 | 157.08045 | 16186 ft | 360 kts | 94° |
| 2026-04-23 20:35 | 7.07078 | 157.10546 | 15777 ft | 357 kts | 94° |
| 2026-04-23 20:35 | 7.06880 | 157.13026 | 15380 ft | 354 kts | 94° |
| 2026-04-23 20:36 | 7.06684 | 157.15490 | 14984 ft | 352 kts | 94° |
| 2026-04-23 20:36 | 7.06489 | 157.17935 | 14585 ft | 349 kts | 94° |
| 2026-04-23 20:36 | 7.06295 | 157.20363 | 14191 ft | 347 kts | 94° |
| 2026-04-23 20:36 | 7.06103 | 157.22776 | 13794 ft | 345 kts | 94° |
| 2026-04-23 20:37 | 7.05911 | 157.25178 | 13361 ft | 343 kts | 94° |
| 2026-04-23 20:37 | 7.05720 | 157.27563 | 12937 ft | 341 kts | 94° |
| 2026-04-23 20:37 | 7.05531 | 157.29932 | 12530 ft | 338 kts | 94° |
| 2026-04-23 20:37 | 7.05343 | 157.32276 | 12147 ft | 335 kts | 94° |
| 2026-04-23 20:38 | 7.05157 | 157.34600 | 11763 ft | 332 kts | 94° |
| 2026-04-23 20:38 | 7.04972 | 157.36911 | 11382 ft | 330 kts | 94° |
| 2026-04-23 20:38 | 7.04788 | 157.39204 | 11005 ft | 327 kts | 94° |
| 2026-04-23 20:38 | 7.04605 | 157.41480 | 10631 ft | 325 kts | 94° |
| 2026-04-23 20:39 | 7.04424 | 157.43734 | 10399 ft | 318 kts | 94° |
| 2026-04-23 20:39 | 7.04248 | 157.45923 | 10257 ft | 309 kts | 94° |
| 2026-04-23 20:39 | 7.04077 | 157.48049 | 10118 ft | 300 kts | 94° |
| 2026-04-23 20:39 | 7.03911 | 157.50113 | 9991 ft | 292 kts | 94° |
| 2026-04-23 20:40 | 7.03749 | 157.52126 | 9783 ft | 287 kts | 94° |
| 2026-04-23 20:40 | 7.03588 | 157.54123 | 9483 ft | 286 kts | 94° |
| 2026-04-23 20:40 | 7.03429 | 157.56109 | 9178 ft | 284 kts | 94° |
| 2026-04-23 20:40 | 7.03269 | 157.58088 | 8885 ft | 282 kts | 94° |
| 2026-04-23 20:41 | 7.03113 | 157.60025 | 8599 ft | 280 kts | 94° |
| 2026-04-23 20:41 | 7.02954 | 157.62000 | 8299 ft | 279 kts | 94° |
| 2026-04-23 20:41 | 7.02797 | 157.63939 | 8010 ft | 277 kts | 94° |
| 2026-04-23 20:41 | 7.02644 | 157.65837 | 7733 ft | 275 kts | 94° |
| 2026-04-23 20:42 | 7.02489 | 157.67750 | 7458 ft | 273 kts | 94° |
| 2026-04-23 20:42 | 7.02335 | 157.69653 | 7174 ft | 272 kts | 94° |
| 2026-04-23 20:42 | 7.02166 | 157.71543 | 6938 ft | 269 kts | 95° |
| 2026-04-23 20:42 | 7.01978 | 157.73413 | 6674 ft | 268 kts | 95° |
| 2026-04-23 20:43 | 7.01788 | 157.75276 | 6395 ft | 267 kts | 95° |
| 2026-04-23 20:43 | 7.01597 | 157.77136 | 6106 ft | 266 kts | 95° |
| 2026-04-23 20:43 | 7.01409 | 157.78986 | 5821 ft | 265 kts | 94° |
| 2026-04-23 20:43 | 7.01221 | 157.80832 | 5543 ft | 265 kts | 95° |
| 2026-04-23 20:44 | 7.01035 | 157.82673 | 5256 ft | 264 kts | 95° |
| 2026-04-23 20:44 | 7.00849 | 157.84502 | 4979 ft | 262 kts | 94° |
| 2026-04-23 20:44 | 7.00667 | 157.86298 | 4855 ft | 255 kts | 95° |
| 2026-04-23 20:44 | 7.00487 | 157.88087 | 4526 ft | 256 kts | 94° |
| 2026-04-23 20:45 | 7.00310 | 157.89838 | 4424 ft | 247 kts | 94° |
| 2026-04-23 20:45 | 7.00138 | 157.91534 | 4305 ft | 240 kts | 94° |
| 2026-04-23 20:45 | 6.99972 | 157.93178 | 4200 ft | 233 kts | 94° |
| 2026-04-23 20:45 | 6.99810 | 157.94773 | 4101 ft | 225 kts | 94° |
| 2026-04-23 20:46 | 6.99655 | 157.96299 | 4038 ft | 214 kts | 94° |
| 2026-04-23 20:46 | 6.99505 | 157.97785 | 3945 ft | 212 kts | 94° |
| 2026-04-23 20:46 | 6.99353 | 157.99278 | 3766 ft | 217 kts | 94° |
| 2026-04-23 20:46 | 6.99202 | 158.00792 | 3531 ft | 218 kts | 94° |
| 2026-04-23 20:47 | 6.99051 | 158.02311 | 3286 ft | 219 kts | 95° |
| 2026-04-23 20:47 | 6.98893 | 158.03829 | 2998 ft | 215 kts | 94° |
| 2026-04-23 20:47 | 6.98744 | 158.05301 | 2760 ft | 207 kts | 94° |
| 2026-04-23 20:47 | 6.98601 | 158.06724 | 2553 ft | 202 kts | 94° |
| 2026-04-23 20:48 | 6.98538 | 158.08100 | 2318 ft | 191 kts | 90° |
| 2026-04-23 20:48 | 6.98536 | 158.09387 | 2098 ft | 176 kts | 89° |
| 2026-04-23 20:48 | 6.98538 | 158.10578 | 1911 ft | 165 kts | 87° |
| 2026-04-23 20:48 | 6.98545 | 158.11717 | 1692 ft | 161 kts | 89° |
| 2026-04-23 20:49 | 6.98542 | 158.12803 | 1463 ft | 152 kts | 89° |
| 2026-04-23 20:49 | 6.98539 | 158.13832 | 1281 ft | 141 kts | 89° |
| 2026-04-23 20:49 | 6.98536 | 158.14794 | 1098 ft | 137 kts | 88° |
| 2026-04-23 20:49 | 6.98533 | 158.15751 | 926 ft | 137 kts | 89° |
| 2026-04-23 20:50 | 6.98531 | 158.16709 | 728 ft | 139 kts | 91° |
| 2026-04-23 20:50 | 6.98524 | 158.17684 | 573 ft | 140 kts | 89° |
| 2026-04-23 20:50 | 6.98520 | 158.18671 | 353 ft | 138 kts | 90° |
| 2026-04-23 20:50 | 6.98525 | 158.19624 | 134 ft | 133 kts | 89° |
| 2026-04-23 20:51 | 6.98515 | 158.20537 | 17 ft | 122 kts | 90° |
| 2026-04-23 20:51 | 6.98510 | 158.21029 | 17 ft | 30 kts | 90° |
| 2026-04-23 20:51 | 6.98511 | 158.21244 | 16 ft | 30 kts | 90° |
| 2026-04-23 20:51 | 6.98509 | 158.21444 | 17 ft | 27 kts | 90° |
| 2026-04-23 20:52 | 6.98511 | 158.21629 | 17 ft | 26 kts | 90° |
| 2026-04-23 20:52 | 6.98483 | 158.21796 | 17 ft | 23 kts | 117° |
| 2026-04-23 20:52 | 6.98508 | 158.21849 | 16 ft | 6 kts | 294° |
| 2026-04-23 20:52 | 6.98507 | 158.21807 | 17 ft | 6 kts | 269° |
| 2026-04-23 20:53 | 6.98507 | 158.21734 | 16 ft | 15 kts | 270° |
| 2026-04-23 20:53 | 6.98507 | 158.21607 | 17 ft | 22 kts | 270° |
| 2026-04-23 20:53 | 6.98508 | 158.21451 | 17 ft | 22 kts | 270° |
| 2026-04-23 20:53 | 6.98509 | 158.21299 | 16 ft | 21 kts | 270° |
| 2026-04-23 20:54 | 6.98510 | 158.21151 | 17 ft | 21 kts | 270° |
| 2026-04-23 20:54 | 6.98510 | 158.21007 | 17 ft | 20 kts | 270° |
| 2026-04-23 20:54 | 6.98511 | 158.20867 | 16 ft | 20 kts | 270° |
| 2026-04-23 20:54 | 6.98511 | 158.20733 | 16 ft | 19 kts | 269° |
| 2026-04-23 20:55 | 6.98509 | 158.20602 | 17 ft | 18 kts | 269° |
| 2026-04-23 20:55 | 6.98511 | 158.20483 | 17 ft | 15 kts | 271° |
| 2026-04-23 20:55 | 6.98507 | 158.20381 | 16 ft | 13 kts | 247° |
| 2026-04-23 20:55 | 6.98430 | 158.20359 | 17 ft | 12 kts | 179° |
| 2026-04-23 20:56 | 6.98347 | 158.20358 | 17 ft | 12 kts | 179° |
| 2026-04-23 20:56 | 6.98278 | 158.20371 | 17 ft | 9 kts | 136° |
| 2026-04-23 20:56 | 6.98232 | 158.20395 | 17 ft | 6 kts | 178° |
| 2026-04-23 20:56 | 6.98188 | 158.20396 | 16 ft | 5 kts | 179° |
| 2026-04-23 20:57 | 6.98178 | 158.20396 | 18 ft | 0 kts | 178° |
| 2026-04-23 21:20 | 6.98180 | 158.20396 | 19 ft | 2 kts | 178° |
| 2026-04-23 21:20 | 6.98203 | 158.20396 | 21 ft | 2 kts | 178° |
| 2026-04-23 21:20 | 6.98227 | 158.20392 | 20 ft | 4 kts | 146° |
| 2026-04-23 21:20 | 6.98242 | 158.20372 | 20 ft | 4 kts | 107° |
| 2026-04-23 21:21 | 6.98251 | 158.20350 | 18 ft | 2 kts | 146° |
| 2026-04-23 21:21 | 6.98253 | 158.20349 | 19 ft | 1 kts | 149° |
| 2026-04-23 21:24 | 6.98252 | 158.20350 | 17 ft | 1 kts | 146° |
| 2026-04-23 21:25 | 6.98257 | 158.20359 | 18 ft | 4 kts | 41° |
| 2026-04-23 21:25 | 6.98292 | 158.20366 | 18 ft | 5 kts | 346° |
| 2026-04-23 21:25 | 6.98330 | 158.20358 | 17 ft | 6 kts | 357° |
| 2026-04-23 21:25 | 6.98370 | 158.20359 | 17 ft | 6 kts | 359° |
| 2026-04-23 21:26 | 6.98423 | 158.20358 | 18 ft | 10 kts | 360° |
| 2026-04-23 21:26 | 6.98493 | 158.20338 | 16 ft | 11 kts | 306° |
| 2026-04-23 21:26 | 6.98511 | 158.20247 | 16 ft | 15 kts | 271° |
| 2026-04-23 21:26 | 6.98486 | 158.20152 | 17 ft | 12 kts | 242° |
| 2026-04-23 21:27 | 6.98495 | 158.20082 | 17 ft | 10 kts | 332° |
| 2026-04-23 21:27 | 6.98515 | 158.20125 | 17 ft | 17 kts | 92° |
| 2026-04-23 21:27 | 6.98514 | 158.20536 | 17 ft | 102 kts | 90° |
| 2026-04-23 21:27 | 6.98517 | 158.21487 | 181 ft | 157 kts | 90° |
| 2026-04-23 21:28 | 6.98521 | 158.22595 | 1121 ft | 159 kts | 89° |
| 2026-04-23 21:28 | 6.98500 | 158.23713 | 2050 ft | 167 kts | 90° |
| 2026-04-23 21:28 | 6.98457 | 158.25004 | 2475 ft | 202 kts | 85° |
| 2026-04-23 21:28 | 6.98987 | 158.26380 | 2967 ft | 224 kts | 52° |
| 2026-04-23 21:29 | 7.00332 | 158.27339 | 3524 ft | 254 kts | 21° |
| 2026-04-23 21:29 | 7.02144 | 158.27474 | 4591 ft | 271 kts | 354° |
| 2026-04-23 21:29 | 7.03917 | 158.26766 | 5758 ft | 282 kts | 332° |
| 2026-04-23 21:29 | 7.05340 | 158.25377 | 6863 ft | 288 kts | 305° |
| 2026-04-23 21:30 | 7.06074 | 158.23477 | 7841 ft | 297 kts | 279° |
| 2026-04-23 21:30 | 7.06141 | 158.21381 | 8791 ft | 303 kts | 268° |
| 2026-04-23 21:30 | 7.06004 | 158.19250 | 9695 ft | 307 kts | 265° |
| 2026-04-23 21:30 | 7.05895 | 158.17088 | 10464 ft | 317 kts | 275° |
| 2026-04-23 21:31 | 7.06453 | 158.14852 | 10792 ft | 344 kts | 293° |
| 2026-04-23 21:31 | 7.07427 | 158.12587 | 11339 ft | 359 kts | 296° |
| 2026-04-23 21:31 | 7.08472 | 158.10290 | 12204 ft | 360 kts | 296° |
| 2026-04-23 21:31 | 7.09526 | 158.08008 | 13134 ft | 360 kts | 297° |
| 2026-04-23 21:32 | 7.10592 | 158.05694 | 13818 ft | 367 kts | 296° |
| 2026-04-23 21:32 | 7.11671 | 158.03349 | 14484 ft | 372 kts | 297° |
| 2026-04-23 21:32 | 7.12760 | 158.00975 | 15173 ft | 376 kts | 297° |
| 2026-04-23 21:32 | 7.13861 | 157.98578 | 15922 ft | 376 kts | 296° |
| 2026-04-23 21:33 | 7.14970 | 157.96186 | 16660 ft | 379 kts | 297° |
| 2026-04-23 21:33 | 7.16031 | 157.93737 | 17322 ft | 384 kts | 287° |
| 2026-04-23 21:33 | 7.16262 | 157.91073 | 18133 ft | 385 kts | 262° |
| 2026-04-23 21:33 | 7.15395 | 157.88524 | 18716 ft | 390 kts | 238° |
| 2026-04-23 21:34 | 7.13711 | 157.86380 | 19300 ft | 393 kts | 230° |
| 2026-04-23 21:34 | 7.12040 | 157.84180 | 19816 ft | 398 kts | 234° |
| 2026-04-23 21:34 | 7.10442 | 157.81916 | 20326 ft | 403 kts | 235° |
| 2026-04-23 21:34 | 7.08824 | 157.79559 | 20923 ft | 406 kts | 235° |
| 2026-04-23 21:35 | 7.07237 | 157.77243 | 21414 ft | 410 kts | 235° |
| 2026-04-23 21:35 | 7.05605 | 157.74876 | 22012 ft | 411 kts | 236° |
| 2026-04-23 21:35 | 7.04013 | 157.72487 | 22620 ft | 412 kts | 241° |
| 2026-04-23 21:35 | 7.02917 | 157.69815 | 23113 ft | 415 kts | 256° |
| 2026-04-23 21:36 | 7.02650 | 157.64018 | 24027 ft | 419 kts | 275° |
| 2026-04-23 21:36 | 7.02897 | 157.61090 | 24447 ft | 422 kts | 275° |
| 2026-04-23 21:36 | 7.03170 | 157.58143 | 24871 ft | 424 kts | 276° |
| 2026-04-23 21:37 | 7.03444 | 157.55176 | 25289 ft | 427 kts | 276° |
| 2026-04-23 21:37 | 7.03712 | 157.52195 | 25693 ft | 430 kts | 275° |
| 2026-04-23 21:37 | 7.03973 | 157.49186 | 26081 ft | 433 kts | 275° |
| 2026-04-23 21:37 | 7.04226 | 157.46162 | 26495 ft | 435 kts | 275° |
| 2026-04-23 21:38 | 7.04475 | 157.43122 | 26909 ft | 437 kts | 275° |
| 2026-04-23 21:38 | 7.04723 | 157.40061 | 27296 ft | 440 kts | 274° |
| 2026-04-23 21:38 | 7.04970 | 157.36984 | 27669 ft | 443 kts | 274° |
| 2026-04-23 21:38 | 7.05217 | 157.33884 | 28052 ft | 445 kts | 274° |
| 2026-04-23 21:39 | 7.05466 | 157.30771 | 28426 ft | 447 kts | 274° |
| 2026-04-23 21:39 | 7.05716 | 157.27641 | 28797 ft | 450 kts | 274° |
| 2026-04-23 21:39 | 7.05967 | 157.24491 | 29162 ft | 452 kts | 274° |
| 2026-04-23 21:39 | 7.06220 | 157.21328 | 29515 ft | 455 kts | 274° |
| 2026-04-23 21:40 | 7.06474 | 157.18140 | 29837 ft | 458 kts | 274° |
| 2026-04-23 21:40 | 7.06729 | 157.14934 | 30141 ft | 460 kts | 274° |
| 2026-04-23 21:40 | 7.06986 | 157.11712 | 30396 ft | 463 kts | 274° |
| 2026-04-23 21:40 | 7.07244 | 157.08471 | 30636 ft | 466 kts | 274° |
| 2026-04-23 21:41 | 7.07503 | 157.05206 | 30879 ft | 469 kts | 274° |
| 2026-04-23 21:41 | 7.07764 | 157.01922 | 31146 ft | 471 kts | 274° |
| 2026-04-23 21:41 | 7.08026 | 156.98631 | 31443 ft | 473 kts | 273° |
| 2026-04-23 21:41 | 7.08288 | 156.95330 | 31758 ft | 473 kts | 273° |
| 2026-04-23 21:42 | 7.08551 | 156.92024 | 32192 ft | 470 kts | 273° |
| 2026-04-23 21:42 | 7.08809 | 156.88783 | 32910 ft | 461 kts | 273° |